Time;durP1;ratioP1;P1;durP2;ratioP2;P2;SDS_P1;SDS_P2;PMS_P1;PMS_P2;Temp;Humidity;BMP_temperature;BMP_pressure;BME280_temperature;BME280_humidity;BME280_pressure;Samples;Min_cycle;Max_cycle;Signal;HPM_P1;HPM_P2
2021/09/11 00:00:16;;;;;;;25.55;13.02;;;;;;;-149.78;100.00;50189.81;5025190;28;20025;-62
2021/09/11 00:02:46;;;;;;;29.55;13.20;;;;;;;-149.78;100.00;50189.81;5027397;28;20132;-60
2021/09/11 00:05:13;;;;;;;26.38;13.32;;;;;;;-149.78;100.00;50189.81;5031128;28;20393;-61
2021/09/11 00:07:40;;;;;;;25.77;13.70;;;;;;;-149.78;100.00;50154.63;5032153;28;21169;-62
2021/09/11 00:10:07;;;;;;;25.00;12.80;;;;;;;-149.78;100.00;50150.72;5026029;28;20386;-61
2021/09/11 00:12:35;;;;;;;29.42;14.63;;;;;;;-149.78;100.00;50189.81;5026120;28;20042;-61
2021/09/11 00:15:01;;;;;;;25.75;13.05;;;;;;;-149.78;100.00;50189.81;5031191;28;20107;-61
2021/09/11 00:17:27;;;;;;;26.15;13.43;;;;;;;-149.78;100.00;50166.34;5028804;28;20046;-61
2021/09/11 00:19:53;;;;;;;26.70;13.60;;;;;;;-149.78;100.00;50174.19;5027697;28;20034;-61
2021/09/11 00:22:22;;;;;;;27.33;13.38;;;;;;;-149.78;100.00;50138.97;5027358;28;20401;-61
2021/09/11 00:24:47;;;;;;;27.92;12.98;;;;;;;-149.78;100.00;50152.66;5034440;28;20029;-61
2021/09/11 00:27:13;;;;;;;23.52;12.27;;;;;;;-149.78;100.00;50185.91;5035702;28;20034;-60
2021/09/11 00:29:38;;;;;;;26.13;13.52;;;;;;;-149.78;100.00;50164.41;5032263;28;20038;-61
2021/09/11 00:32:04;;;;;;;26.48;13.23;;;;;;;-149.78;100.00;50170.25;5012744;28;20033;-61
2021/09/11 00:34:30;;;;;;;26.70;13.73;;;;;;;-149.78;100.00;50174.19;5033870;28;20157;-61
2021/09/11 00:36:57;;;;;;;25.85;13.52;;;;;;;-149.78;100.00;50154.63;5033837;28;20120;-61
2021/09/11 00:39:23;;;;;;;24.92;13.63;;;;;;;-149.78;100.00;50170.25;5035666;28;20030;-61
2021/09/11 00:41:53;;;;;;;28.13;13.30;;;;;;;-149.78;100.00;50162.44;5028235;28;20511;-61
2021/09/11 00:44:19;;;;;;;24.55;12.88;;;;;;;-149.78;100.00;50189.81;5034766;28;20497;-61
2021/09/11 00:46:44;;;;;;;30.40;13.93;;;;;;;-149.78;100.00;50158.53;5034700;28;20057;-61
2021/09/11 00:49:11;;;;;;;30.08;14.77;;;;;;;-149.78;100.00;50197.66;5033903;28;20036;-61
2021/09/11 00:51:37;;;;;;;30.77;14.90;;;;;;;-149.78;100.00;50162.44;5033512;28;20045;-60
2021/09/11 00:54:04;;;;;;;32.70;15.10;;;;;;;-149.78;100.00;50185.91;5034133;28;20572;-61
2021/09/11 00:56:30;;;;;;;28.85;14.95;;;;;;;-149.78;100.00;50170.25;5033880;28;20033;-61
2021/09/11 00:58:58;;;;;;;26.42;13.27;;;;;;;-149.78;100.00;50146.81;5033788;28;20456;-61
2021/09/11 01:01:24;;;;;;;33.58;16.17;;;;;;;-149.78;100.00;50174.19;5035051;28;20501;-61
2021/09/11 01:03:49;;;;;;;35.92;17.55;;;;;;;-149.78;100.00;50162.44;5031418;28;20049;-61
2021/09/11 01:06:15;;;;;;;34.63;17.17;;;;;;;-149.78;100.00;50205.47;5025895;28;20033;-61
2021/09/11 01:08:41;;;;;;;36.13;17.23;;;;;;;-149.78;100.00;50197.66;5028455;28;20544;-61
2021/09/11 01:11:08;;;;;;;36.30;18.02;;;;;;;-149.78;100.00;50168.31;5028498;28;20037;-61
2021/09/11 01:13:34;;;;;;;36.85;19.35;;;;;;;-149.78;100.00;50183.97;5028678;28;20091;-61
2021/09/11 01:16:00;;;;;;;37.75;18.63;;;;;;;-149.78;100.00;50197.66;5030278;28;20053;-61
2021/09/11 01:18:26;;;;;;;36.03;16.65;;;;;;;-149.78;100.00;50182.00;5031487;28;20099;-61
2021/09/11 01:20:53;;;;;;;32.80;16.42;;;;;;;-149.78;100.00;50201.56;5031114;28;20033;-61
2021/09/11 01:23:21;;;;;;;34.58;17.40;;;;;;;-149.78;100.00;50174.19;5033119;28;20074;-60
2021/09/11 01:25:48;;;;;;;36.85;16.98;;;;;;;-149.78;100.00;50146.81;5033443;28;20029;-61
2021/09/11 01:28:14;;;;;;;34.03;16.52;;;;;;;-149.78;100.00;50189.81;5033655;28;20034;-61
2021/09/11 01:30:40;;;;;;;39.03;17.60;;;;;;;-149.78;100.00;50209.38;5030589;28;20037;-61
2021/09/11 01:33:06;;;;;;;33.13;15.98;;;;;;;-149.78;100.00;50174.19;5026694;28;20094;-61
2021/09/11 01:35:32;;;;;;;35.65;16.10;;;;;;;-149.78;100.00;50183.97;5029438;28;20042;-61
2021/09/11 01:37:58;;;;;;;31.90;15.65;;;;;;;-149.78;100.00;50158.53;5033776;28;20034;-61
2021/09/11 01:40:23;;;;;;;38.38;15.38;;;;;;;-149.78;100.00;50197.66;5034126;28;20045;-60
2021/09/11 01:42:49;;;;;;;29.98;15.73;;;;;;;-149.78;100.00;50226.97;5031395;28;20065;-61
2021/09/11 01:45:17;;;;;;;31.65;15.10;;;;;;;-149.78;100.00;50160.50;5026763;28;20034;-61
2021/09/11 01:47:44;;;;;;;28.40;15.15;;;;;;;-149.78;100.00;50162.44;5033116;28;20034;-61
2021/09/11 01:50:12;;;;;;;31.40;15.15;;;;;;;-149.78;100.00;50182.00;5030523;28;20063;-60
2021/09/11 01:52:37;;;;;;;27.65;14.40;;;;;;;-149.78;100.00;50232.84;5033009;28;20067;-60
2021/09/11 01:55:07;;;;;;;27.95;15.35;;;;;;;-149.78;100.00;50189.81;5033617;28;20064;-60
2021/09/11 01:57:41;;;;;;;30.35;16.30;;;;;;;-149.78;100.00;50189.81;5030826;28;20109;-60
2021/09/11 02:00:08;;;;;;;29.73;14.82;;;;;;;-149.78;100.00;50197.66;5032778;28;20033;-60
2021/09/11 02:02:34;;;;;;;29.98;15.13;;;;;;;-149.78;100.00;50174.19;5031988;28;20083;-60
2021/09/11 02:04:59;;;;;;;26.15;14.48;;;;;;;-149.78;100.00;50189.81;5030727;28;20132;-60
2021/09/11 02:07:25;;;;;;;25.75;13.88;;;;;;;-149.78;100.00;50217.19;5025109;28;20044;-60
2021/09/11 02:09:50;;;;;;;28.23;14.25;;;;;;;-149.78;100.00;50205.47;5028921;28;20113;-60
2021/09/11 02:12:16;;;;;;;27.40;15.10;;;;;;;-149.78;100.00;50180.03;5025938;28;20042;-60
2021/09/11 02:14:41;;;;;;;29.27;14.80;;;;;;;-149.78;100.00;50164.41;5022633;28;20034;-60
2021/09/11 02:17:07;;;;;;;30.50;15.77;;;;;;;-149.78;100.00;50174.19;5026324;28;20049;-60
2021/09/11 02:19:33;;;;;;;29.95;15.27;;;;;;;-149.78;100.00;50199.59;5031996;28;20040;-60
2021/09/11 02:22:01;;;;;;;28.10;14.68;;;;;;;-149.78;100.00;50197.66;5031919;28;20025;-60
2021/09/11 02:24:29;;;;;;;28.52;14.63;;;;;;;-149.78;100.00;50142.88;5026595;28;20036;-60
2021/09/11 02:26:55;;;;;;;27.65;15.48;;;;;;;-149.78;100.00;50180.03;5031495;28;20029;-63
2021/09/11 02:29:21;;;;;;;31.50;15.82;;;;;;;-149.78;100.00;50146.81;5031990;28;20362;-61
2021/09/11 02:31:47;;;;;;;34.40;17.80;;;;;;;-149.78;100.00;50164.41;5032547;28;20116;-60
2021/09/11 02:34:12;;;;;;;31.02;17.40;;;;;;;-149.78;100.00;50189.81;5026168;28;20050;-60
2021/09/11 02:36:38;;;;;;;30.27;16.95;;;;;;;-149.78;100.00;50180.03;5016262;28;20045;-60
2021/09/11 02:39:04;;;;;;;28.92;16.30;;;;;;;-149.78;100.00;50162.44;5030593;28;20048;-60
2021/09/11 02:41:30;;;;;;;26.83;15.32;;;;;;;-149.78;100.00;50205.47;5031907;28;20037;-60
2021/09/11 02:43:56;;;;;;;29.83;15.35;;;;;;;-149.78;100.00;50180.03;5022193;28;20041;-60
2021/09/11 02:46:21;;;;;;;30.48;17.00;;;;;;;-149.78;100.00;50178.09;5020189;28;20026;-60
2021/09/11 02:48:47;;;;;;;35.65;17.13;;;;;;;-149.78;100.00;50178.09;5022231;28;20037;-60
2021/09/11 02:51:13;;;;;;;33.40;17.90;;;;;;;-149.78;100.00;50189.81;5028602;28;20120;-60
2021/09/11 02:53:38;;;;;;;33.85;17.95;;;;;;;-149.78;100.00;50189.81;5030585;28;20504;-60
2021/09/11 02:56:04;;;;;;;33.92;19.13;;;;;;;-149.78;100.00;50174.19;5029579;28;20033;-60
2021/09/11 02:58:30;;;;;;;34.10;18.75;;;;;;;-149.78;100.00;50178.09;5026848;28;20045;-60
2021/09/11 03:00:55;;;;;;;32.20;17.88;;;;;;;-149.78;100.00;50174.19;5030036;28;20055;-60
2021/09/11 03:03:21;;;;;;;36.95;18.73;;;;;;;-149.78;100.00;50158.53;5031748;28;20124;-60
2021/09/11 03:05:47;;;;;;;31.27;16.70;;;;;;;-149.78;100.00;50135.06;5023653;28;20160;-60
2021/09/11 03:08:13;;;;;;;30.10;16.75;;;;;;;-149.78;100.00;50162.44;5028820;28;20129;-60
2021/09/11 03:10:39;;;;;;;27.33;15.50;;;;;;;-149.78;100.00;50178.09;5026793;28;20042;-60
2021/09/11 03:13:04;;;;;;;29.48;16.65;;;;;;;-149.78;100.00;50174.19;5024641;28;20045;-60
2021/09/11 03:15:30;;;;;;;28.05;16.88;;;;;;;-149.78;100.00;50201.56;5027606;28;20037;-60
2021/09/11 03:17:55;;;;;;;30.08;16.48;;;;;;;-149.78;100.00;50176.13;5029616;28;20484;-60
2021/09/11 03:20:21;;;;;;;29.05;15.98;;;;;;;-149.78;100.00;50189.81;5030716;28;20041;-60
2021/09/11 03:22:47;;;;;;;21.77;13.35;;;;;;;-149.78;100.00;50162.44;5026579;28;20424;-57
2021/09/11 03:25:13;;;;;;;22.40;13.05;;;;;;;-149.78;100.00;50217.19;5030764;28;20060;-59
2021/09/11 03:27:39;;;;;;;18.92;12.20;;;;;;;-149.78;100.00;50197.66;5027325;28;20026;-57
2021/09/11 03:30:06;;;;;;;22.15;11.25;;;;;;;-149.78;100.00;50195.69;5027290;28;20041;-58
2021/09/11 03:32:31;;;;;;;23.80;13.35;;;;;;;-149.78;100.00;50185.91;5030375;28;20124;-58
2021/09/11 03:34:57;;;;;;;26.63;15.45;;;;;;;-149.78;100.00;50213.28;5027658;28;20037;-58
2021/09/11 03:37:22;;;;;;;30.98;17.13;;;;;;;-149.78;100.00;50180.03;5027847;28;20112;-57
2021/09/11 03:39:48;;;;;;;28.17;16.08;;;;;;;-149.78;100.00;50185.91;5026410;28;20061;-58
2021/09/11 03:42:13;;;;;;;30.35;16.67;;;;;;;-149.78;100.00;50219.16;5030717;28;20089;-57
2021/09/11 03:44:39;;;;;;;29.38;16.38;;;;;;;-149.78;100.00;50215.25;5027130;28;20045;-57
2021/09/11 03:47:04;;;;;;;25.40;14.98;;;;;;;-149.78;100.00;50217.19;5029460;28;20036;-58
2021/09/11 03:49:30;;;;;;;28.15;16.38;;;;;;;-149.78;100.00;50185.91;5029992;28;20374;-57
2021/09/11 03:51:55;;;;;;;26.27;14.00;;;;;;;-149.78;100.00;50228.94;5030327;28;20042;-57
2021/09/11 03:54:21;;;;;;;22.40;13.40;;;;;;;-149.78;100.00;50197.66;5030741;28;20040;-58
2021/09/11 03:56:47;;;;;;;17.85;11.10;;;;;;;-149.78;100.00;50225.03;5023663;28;20503;-58
2021/09/11 03:59:13;;;;;;;18.35;10.32;;;;;;;-149.78;100.00;50197.66;5034769;28;20060;-57
2021/09/11 04:01:38;;;;;;;18.70;10.60;;;;;;;-149.78;100.00;50217.19;5034542;28;20120;-57
2021/09/11 04:04:04;;;;;;;17.25;10.20;;;;;;;-149.78;100.00;50174.19;5034075;28;20033;-57
2021/09/11 04:06:29;;;;;;;17.40;10.82;;;;;;;-149.78;100.00;50217.19;5033741;28;20030;-57
2021/09/11 04:08:55;;;;;;;18.77;11.18;;;;;;;-149.78;100.00;50164.41;5034386;28;20099;-57
2021/09/11 04:11:21;;;;;;;17.00;10.20;;;;;;;-149.78;100.00;50178.09;5031429;28;20116;-57
2021/09/11 04:13:47;;;;;;;20.60;11.10;;;;;;;-149.78;100.00;50201.56;5023699;28;20074;-57
2021/09/11 04:16:13;;;;;;;21.73;12.90;;;;;;;-149.78;100.00;50219.16;5033989;28;20370;-57
2021/09/11 04:18:38;;;;;;;21.48;12.57;;;;;;;-149.78;100.00;50232.84;5033274;28;20072;-57
2021/09/11 04:21:04;;;;;;;24.60;13.57;;;;;;;-149.78;100.00;50225.03;5023327;28;20388;-57
2021/09/11 04:23:29;;;;;;;23.05;12.18;;;;;;;-149.78;100.00;50199.59;5034149;28;20382;-57
2021/09/11 04:25:55;;;;;;;18.50;10.63;;;;;;;-149.78;100.00;50158.53;5033516;28;20063;-57
2021/09/11 04:28:21;;;;;;;19.33;10.48;;;;;;;-149.78;100.00;50219.16;5035297;28;20447;-57
2021/09/11 04:30:46;;;;;;;16.55;9.63;;;;;;;-149.78;100.00;50211.34;5021256;28;20040;-58
2021/09/11 04:33:12;;;;;;;15.00;8.40;;;;;;;-149.78;100.00;50201.56;5033473;28;20424;-57
2021/09/11 04:35:37;;;;;;;17.63;9.95;;;;;;;-149.78;100.00;50221.13;5025525;28;20121;-57
2021/09/11 04:38:03;;;;;;;15.68;9.52;;;;;;;-149.78;100.00;50189.81;5021117;28;20044;-57
2021/09/11 04:40:29;;;;;;;16.08;9.70;;;;;;;-149.78;100.00;50189.81;5034761;28;20107;-57
2021/09/11 04:42:56;;;;;;;15.40;9.35;;;;;;;-149.78;100.00;50211.34;5030008;28;20033;-57
2021/09/11 04:45:22;;;;;;;17.17;9.90;;;;;;;-149.78;100.00;50203.50;5018168;28;20034;-57
2021/09/11 04:47:48;;;;;;;16.65;9.63;;;;;;;-149.78;100.00;50238.72;5032180;28;20033;-58
2021/09/11 04:50:13;;;;;;;14.98;9.55;;;;;;;-149.78;100.00;50230.88;5033816;28;20075;-57
2021/09/11 04:52:39;;;;;;;16.00;9.40;;;;;;;-149.78;100.00;50225.03;5033096;28;20045;-57
2021/09/11 04:55:07;;;;;;;13.43;8.57;;;;;;;-149.78;100.00;50225.03;5028666;28;20057;-57
2021/09/11 04:57:35;;;;;;;12.45;8.02;;;;;;;-149.78;100.00;50201.56;5027549;28;20072;-57
2021/09/11 05:00:01;;;;;;;11.68;7.45;;;;;;;-149.78;100.00;50209.38;5032695;28;20029;-57
2021/09/11 05:02:28;;;;;;;11.90;7.75;;;;;;;-149.78;100.00;50215.25;5034883;28;20068;-57
2021/09/11 05:04:54;;;;;;;14.27;8.10;;;;;;;-149.78;100.00;50217.19;5031950;28;20436;-58
2021/09/11 05:07:20;;;;;;;11.57;7.63;;;;;;;-149.78;100.00;50189.81;5024931;28;20030;-57
2021/09/11 05:09:45;;;;;;;12.13;7.20;;;;;;;-149.78;100.00;50244.59;5028933;28;20459;-57
2021/09/11 05:12:11;;;;;;;10.85;7.15;;;;;;;-149.78;100.00;50252.41;5033942;28;20029;-60
2021/09/11 05:14:38;;;;;;;10.48;7.43;;;;;;;-149.78;100.00;50197.66;5035203;28;20033;-57
2021/09/11 05:17:04;;;;;;;9.20;6.45;;;;;;;-149.78;100.00;50197.66;5032711;28;20386;-57
2021/09/11 05:19:30;;;;;;;11.20;7.07;;;;;;;-149.78;100.00;50242.63;5034305;28;20120;-57
2021/09/11 05:21:55;;;;;;;9.40;6.50;;;;;;;-149.78;100.00;50221.13;5033051;28;20525;-57
2021/09/11 05:24:21;;;;;;;12.18;7.50;;;;;;;-149.78;100.00;50234.81;5032255;28;20400;-57
2021/09/11 05:26:47;;;;;;;12.10;7.07;;;;;;;-149.78;100.00;50189.81;5033017;28;20041;-57
2021/09/11 05:29:13;;;;;;;8.95;6.50;;;;;;;-149.78;100.00;50221.13;5030881;28;20044;-57
2021/09/11 05:31:38;;;;;;;10.80;7.22;;;;;;;-149.78;100.00;50221.13;5032314;28;20041;-58
2021/09/11 05:34:05;;;;;;;11.13;7.07;;;;;;;-149.78;100.00;50217.19;5032963;28;20164;-57
2021/09/11 05:36:31;;;;;;;11.98;7.45;;;;;;;-149.78;100.00;50209.38;5031486;28;20030;-57
2021/09/11 05:38:58;;;;;;;11.30;7.53;;;;;;;-149.78;100.00;50178.09;5032556;28;20120;-57
2021/09/11 05:41:23;;;;;;;14.00;6.95;;;;;;;-149.78;100.00;50213.28;5030832;28;20029;-57
2021/09/11 05:43:49;;;;;;;11.82;7.50;;;;;;;-149.78;100.00;50244.59;5020789;28;20038;-57
2021/09/11 05:46:15;;;;;;;10.20;6.78;;;;;;;-149.78;100.00;50244.59;5024892;28;20033;-57
2021/09/11 05:48:41;;;;;;;10.77;6.43;;;;;;;-149.78;100.00;50228.94;5024471;28;20044;-60
2021/09/11 05:51:08;;;;;;;8.82;6.00;;;;;;;-149.78;100.00;50225.03;5023989;28;20037;-57
2021/09/11 05:53:33;;;;;;;8.38;6.50;;;;;;;-149.78;100.00;50221.13;5018963;28;20025;-58
2021/09/11 05:56:00;;;;;;;12.68;6.15;;;;;;;-149.78;100.00;50197.66;5019752;28;20036;-57
2021/09/11 05:58:26;;;;;;;9.45;5.38;;;;;;;-149.78;100.00;50238.72;5018427;28;20038;-58
2021/09/11 06:00:51;;;;;;;7.45;5.28;;;;;;;-149.78;100.00;50232.84;5020580;28;20041;-57
2021/09/11 06:03:17;;;;;;;7.40;5.22;;;;;;;-149.78;100.00;50205.47;5019707;28;20057;-57
2021/09/11 06:05:42;;;;;;;8.45;5.88;;;;;;;-149.78;100.00;50225.03;5017517;28;20026;-57
2021/09/11 06:08:08;;;;;;;7.95;5.45;;;;;;;-149.78;100.00;50232.84;5017457;28;20026;-60
2021/09/11 06:10:33;;;;;;;8.82;4.85;;;;;;;-149.78;100.00;50244.59;5015895;28;20104;-58
2021/09/11 06:12:59;;;;;;;6.47;4.72;;;;;;;-149.78;100.00;50221.13;5018630;28;20519;-59
2021/09/11 06:15:25;;;;;;;10.00;5.18;;;;;;;-149.78;100.00;50248.50;5022044;28;20091;-60
2021/09/11 06:17:52;;;;;;;6.60;4.30;;;;;;;-149.78;100.00;50217.19;5018825;28;20041;-59
2021/09/11 06:20:17;;;;;;;8.45;5.10;;;;;;;-149.78;100.00;50260.22;5018841;28;20408;-59
2021/09/11 06:22:44;;;;;;;5.93;3.72;;;;;;;-149.78;100.00;50217.19;5022506;28;20027;-60
2021/09/11 06:25:10;;;;;;;6.05;4.30;;;;;;;-149.78;100.00;50221.13;5023297;28;20113;-59
2021/09/11 06:27:35;;;;;;;6.05;4.28;;;;;;;-149.78;100.00;50236.75;5019478;28;20034;-59
2021/09/11 06:30:01;;;;;;;6.60;4.13;;;;;;;-149.78;100.00;50221.13;5023942;28;20022;-59
2021/09/11 06:32:27;;;;;;;7.30;3.90;;;;;;;-149.78;100.00;50226.97;5017671;28;20037;-60
2021/09/11 06:34:53;;;;;;;6.03;4.07;;;;;;;-149.78;100.00;50209.38;5017511;28;20037;-59
2021/09/11 06:37:19;;;;;;;5.63;3.65;;;;;;;-149.78;100.00;50232.84;5016862;28;20038;-60
2021/09/11 06:39:45;;;;;;;5.30;4.00;;;;;;;-149.78;100.00;50225.03;5015710;28;20038;-60
2021/09/11 06:42:12;;;;;;;5.50;3.80;;;;;;;-149.78;100.00;50232.84;5020705;28;20492;-59
2021/09/11 06:44:38;;;;;;;5.32;3.80;;;;;;;-149.78;100.00;50197.66;5021750;28;20086;-59
2021/09/11 06:47:04;;;;;;;4.43;3.83;;;;;;;-149.78;100.00;50232.84;5018903;28;20033;-59
2021/09/11 06:49:30;;;;;;;6.85;3.75;;;;;;;-149.78;100.00;50236.75;5018524;28;20120;-59
2021/09/11 06:51:55;;;;;;;5.30;3.90;;;;;;;-149.78;100.00;50217.19;5026146;28;20428;-60
2021/09/11 06:54:21;;;;;;;5.30;3.97;;;;;;;-149.78;100.00;50217.19;5019814;28;20401;-59
2021/09/11 06:56:48;;;;;;;7.57;3.75;;;;;;;-149.78;100.00;50164.41;5019666;28;20061;-58
2021/09/11 06:59:13;;;;;;;6.70;4.07;;;;;;;-149.78;100.00;50160.50;5026279;28;20128;-59
2021/09/11 07:01:39;;;;;;;5.38;3.97;;;;;;;-149.78;100.00;50209.38;5019759;28;20037;-59
2021/09/11 07:04:05;;;;;;;6.68;4.20;;;;;;;-149.78;100.00;50228.94;5008096;28;20461;-59
2021/09/11 07:06:31;;;;;;;4.03;3.53;;;;;;;-149.78;100.00;50201.56;5017121;28;20362;-60
2021/09/11 07:08:56;;;;;;;6.13;3.90;;;;;;;-149.78;100.00;50213.28;5003794;28;20545;-60
2021/09/11 07:11:22;;;;;;;5.60;3.47;;;;;;;-149.78;100.00;50174.19;5019542;28;20124;-59
2021/09/11 07:13:48;;;;;;;5.07;3.72;;;;;;;-149.78;100.00;50223.06;5022593;28;20042;-59
2021/09/11 07:16:14;;;;;;;5.55;3.67;;;;;;;-149.78;100.00;50195.69;5020852;28;20060;-59
2021/09/11 07:18:39;;;;;;;4.85;3.30;;;;;;;-149.78;100.00;50185.91;5028196;28;20367;-59
2021/09/11 07:21:05;;;;;;;4.15;3.33;;;;;;;-149.78;100.00;50209.38;5026394;28;20366;-60
2021/09/11 07:23:31;;;;;;;4.20;3.40;;;;;;;-149.78;100.00;50174.19;5027732;28;20080;-60
2021/09/11 07:25:58;;;;;;;6.03;3.00;;;;;;;-149.78;100.00;50209.38;5025780;28;20026;-60
2021/09/11 07:28:23;;;;;;;6.22;3.47;;;;;;;-149.78;100.00;50172.22;5022199;28;20389;-60
2021/09/11 07:30:49;;;;;;;4.00;3.22;;;;;;;-149.78;100.00;50205.47;5025842;28;20025;-60
2021/09/11 07:33:15;;;;;;;5.10;3.33;;;;;;;-149.78;100.00;50244.59;5035754;28;20381;-59
2021/09/11 07:35:40;;;;;;;5.00;3.60;;;;;;;-149.78;100.00;50201.56;5032609;28;20079;-60
2021/09/11 07:38:06;;;;;;;4.15;3.35;;;;;;;-149.78;100.00;50207.44;5036474;28;20087;-64
2021/09/11 07:40:32;;;;;;;6.10;3.53;;;;;;;-149.78;100.00;50182.00;5035325;28;20164;-61
2021/09/11 07:42:57;;;;;;;4.03;3.40;;;;;;;-149.78;100.00;50219.16;5029584;28;20504;-64
2021/09/11 07:45:23;;;;;;;4.28;3.50;;;;;;;-149.78;100.00;50185.91;5035030;28;20029;-66
2021/09/11 07:47:49;;;;;;;4.15;3.35;;;;;;;-149.78;100.00;50174.19;5017630;28;20484;-64
2021/09/11 07:50:15;;;;;;;4.90;3.70;;;;;;;-149.78;100.00;50182.00;5024973;28;20119;-64
2021/09/11 07:52:40;;;;;;;4.65;3.50;;;;;;;-149.78;100.00;50176.13;5031535;28;20032;-64
2021/09/11 07:55:07;;;;;;;6.28;3.88;;;;;;;-149.78;100.00;50170.25;5035982;28;20404;-61
2021/09/11 07:57:33;;;;;;;7.07;3.80;;;;;;;-149.78;100.00;50189.81;5027127;28;20070;-62
2021/09/11 07:59:59;;;;;;;4.00;3.47;;;;;;;-149.78;100.00;50131.16;5029334;28;20037;-64
2021/09/11 08:02:24;;;;;;;3.80;3.33;;;;;;;-149.78;100.00;50170.25;5026378;28;20037;-62
2021/09/11 08:04:50;;;;;;;6.97;3.35;;;;;;;-149.78;100.00;50119.41;5023906;28;20049;-62
2021/09/11 08:07:16;;;;;;;5.22;3.70;;;;;;;-149.78;100.00;50101.81;5027554;28;20445;-62
2021/09/11 08:09:41;;;;;;;4.53;3.20;;;;;;;-149.78;100.00;50125.28;5028103;28;20061;-64
2021/09/11 08:12:07;;;;;;;4.22;3.38;;;;;;;-149.78;100.00;50152.66;5026152;28;20038;-59
2021/09/11 08:14:33;;;;;;;5.32;3.40;;;;;;;-149.78;100.00;50174.19;5030087;28;20048;-61
2021/09/11 08:17:01;;;;;;;4.80;3.45;;;;;;;-149.78;100.00;50158.53;5026190;28;20037;-61
2021/09/11 08:19:26;;;;;;;4.15;3.30;;;;;;;-149.78;100.00;50162.44;5021491;28;20054;-63
2021/09/11 08:21:52;;;;;;;4.13;3.40;;;;;;;-149.78;100.00;50127.25;5015190;28;20034;-61
2021/09/11 08:24:18;;;;;;;4.57;3.25;;;;;;;-149.78;100.00;50201.56;5019561;28;20049;-61
2021/09/11 08:26:43;;;;;;;4.28;3.20;;;;;;;-149.78;100.00;50138.97;5022141;28;20030;-63
2021/09/11 08:29:09;;;;;;;5.68;3.95;;;;;;;-149.78;100.00;50178.09;5021382;28;20026;-62
2021/09/11 08:31:35;;;;;;;8.55;5.75;;;;;;;-149.78;100.00;50178.09;5022936;28;20045;-62
2021/09/11 08:34:00;;;;;;;8.90;6.13;;;;;;;-149.78;100.00;50185.91;5019480;28;20052;-62
2021/09/11 08:36:26;;;;;;;8.77;7.05;;;;;;;-149.78;100.00;50174.19;5022732;28;20065;-61
2021/09/11 08:38:52;;;;;;;10.23;7.30;;;;;;;-149.78;100.00;50215.25;5027343;28;20088;-62
2021/09/11 08:41:17;;;;;;;9.32;6.72;;;;;;;-149.78;100.00;50205.47;5034598;28;20041;-63
2021/09/11 08:43:43;;;;;;;8.45;6.65;;;;;;;-149.78;100.00;50166.34;5033381;28;20033;-65
2021/09/11 08:46:09;;;;;;;7.93;5.70;;;;;;;-149.78;100.00;50205.47;5031416;28;20091;-64
2021/09/11 08:48:34;;;;;;;6.80;5.47;;;;;;;-149.78;100.00;50189.81;5032707;28;20041;-63
2021/09/11 08:51:00;;;;;;;7.78;5.57;;;;;;;-149.78;100.00;50185.91;5030695;28;20039;-63
2021/09/11 08:53:26;;;;;;;7.43;5.53;;;;;;;-149.78;100.00;50185.91;5029203;28;20541;-63
2021/09/11 08:55:51;;;;;;;8.05;6.00;;;;;;;-149.78;100.00;50185.91;5031644;28;20029;-62
2021/09/11 08:58:21;;;;;;;10.48;6.65;;;;;;;-149.78;100.00;50197.66;5029446;28;20058;-62
2021/09/11 09:00:50;;;;;;;9.80;5.85;;;;;;;-149.78;100.00;50178.09;5026936;28;20042;-62
2021/09/11 09:03:35;;;;;;;8.23;5.38;;;;;;;-149.78;100.00;50189.81;5025860;28;20120;-62
2021/09/11 09:06:27;;;;;;;6.90;5.55;;;;;;;-149.78;100.00;50213.28;5023699;28;20022;-62
2021/09/11 09:09:02;;;;;;;8.73;5.60;;;;;;;-149.78;100.00;50182.00;5023169;28;20397;-62
2021/09/11 09:11:30;;;;;;;8.32;5.00;;;;;;;-149.78;100.00;50148.75;5031093;28;20025;-62
2021/09/11 09:14:17;;;;;;;7.10;4.50;;;;;;;-149.78;100.00;50180.03;5026004;28;20071;-62
2021/09/11 09:16:50;;;;;;;5.90;4.32;;;;;;;-149.78;100.00;50183.97;5018681;28;20033;-61
2021/09/11 09:19:24;;;;;;;5.40;4.13;;;;;;;-149.78;100.00;50201.56;5024905;28;20095;-63
2021/09/11 09:21:59;;;;;;;7.30;4.25;;;;;;;-149.78;100.00;50170.25;5025327;28;20037;-63
2021/09/11 09:24:31;;;;;;;5.60;4.38;;;;;;;-149.78;100.00;50172.22;5028584;28;20040;-68
2021/09/11 09:27:02;;;;;;;7.97;5.60;;;;;;;-149.78;100.00;50166.34;5029171;28;20684;-68
2021/09/11 09:29:28;;;;;;;5.90;4.75;;;;;;;-149.78;100.00;50154.63;5024777;28;20119;-68
2021/09/11 09:31:56;;;;;;;7.38;5.32;;;;;;;-149.78;100.00;50156.56;5021036;28;20044;-68
2021/09/11 09:34:32;;;;;;;6.57;5.50;;;;;;;-149.78;100.00;50168.31;5017689;28;20068;-68
2021/09/11 09:37:01;;;;;;;7.75;5.75;;;;;;;-149.78;100.00;50221.13;5025900;28;20037;-66
2021/09/11 09:39:28;;;;;;;5.32;4.45;;;;;;;-149.78;100.00;50230.88;5031486;28;20036;-66
2021/09/11 09:42:01;;;;;;;5.28;3.88;;;;;;;-149.78;100.00;50182.00;5026375;28;20425;-66
2021/09/11 09:44:27;;;;;;;6.25;3.97;;;;;;;-149.78;100.00;50164.41;5024041;28;20033;-61
2021/09/11 09:46:54;;;;;;;4.30;3.58;;;;;;;-149.78;100.00;50127.25;4980364;28;20037;-61
2021/09/11 09:49:24;;;;;;;5.00;3.78;;;;;;;-149.78;100.00;50150.72;4988475;28;20080;-60
2021/09/11 09:51:51;;;;;;;6.10;3.60;;;;;;;-149.78;100.00;50162.44;5029636;28;20362;-61
2021/09/11 09:54:18;;;;;;;3.92;3.45;;;;;;;-149.78;100.00;50158.53;5024332;28;20099;-61
2021/09/11 09:56:44;;;;;;;5.60;4.10;;;;;;;-149.78;100.00;50158.53;5021290;28;20061;-61
2021/09/11 09:59:11;;;;;;;4.28;3.40;;;;;;;-149.78;100.00;50166.34;5031773;28;20025;-61
2021/09/11 10:01:38;;;;;;;4.47;3.45;;;;;;;-149.78;100.00;50205.47;5029097;28;20043;-61
2021/09/11 10:04:15;;;;;;;5.32;3.72;;;;;;;-149.78;100.00;50166.34;5032666;28;20416;-61
2021/09/11 10:06:43;;;;;;;3.80;3.15;;;;;;;-149.78;100.00;50189.81;5027751;28;20026;-61
2021/09/11 10:09:10;;;;;;;4.88;3.58;;;;;;;-149.78;100.00;50199.59;5024256;28;20052;-61
2021/09/11 10:11:38;;;;;;;5.55;3.75;;;;;;;-149.78;100.00;50195.69;5030720;28;20404;-61
2021/09/11 10:14:09;;;;;;;4.68;3.80;;;;;;;-149.78;100.00;50195.69;5016001;28;20064;-61
2021/09/11 10:16:37;;;;;;;6.25;4.70;;;;;;;-149.78;100.00;50178.09;5025284;28;20075;-61
2021/09/11 10:19:20;;;;;;;8.70;5.63;;;;;;;-149.78;100.00;50162.44;5020605;28;20049;-61
2021/09/11 10:21:47;;;;;;;8.25;5.03;;;;;;;-149.78;100.00;50189.81;5032526;28;20067;-61
2021/09/11 10:24:17;;;;;;;4.40;4.00;;;;;;;-149.78;100.00;50203.50;5031566;28;20393;-61
2021/09/11 10:27:01;;;;;;;4.68;3.75;;;;;;;-149.78;100.00;50176.13;5032666;28;20029;-61
2021/09/11 10:29:33;;;;;;;5.43;3.28;;;;;;;-149.78;100.00;50205.47;5023701;28;20116;-61
2021/09/11 10:32:02;;;;;;;5.65;4.32;;;;;;;-149.78;100.00;50193.72;5025928;28;20040;-61
2021/09/11 10:35:00;;;;;;;5.63;3.85;;;;;;;-149.78;100.00;50150.72;5024934;28;20116;-61
2021/09/11 10:37:47;;;;;;;5.85;3.22;;;;;;;-149.78;100.00;50162.44;5025947;28;20124;-61
2021/09/11 10:40:19;;;;;;;5.82;3.40;;;;;;;-149.78;100.00;50185.91;5031363;28;20033;-61
2021/09/11 10:43:10;;;;;;;3.53;3.15;;;;;;;-149.78;100.00;50170.25;5024037;28;20037;-61
2021/09/11 10:45:47;;;;;;;6.53;3.22;;;;;;;-149.78;100.00;50174.19;5024504;28;20064;-61
2021/09/11 10:48:48;;;;;;;4.97;3.55;;;;;;;-149.78;100.00;50174.19;5029403;28;20040;-61
2021/09/11 10:51:27;;;;;;;3.60;3.30;;;;;;;-149.78;100.00;50185.91;5029790;28;20097;-61
2021/09/11 10:54:07;;;;;;;3.75;2.88;;;;;;;-149.78;100.00;50178.09;5032428;28;20085;-61
2021/09/11 10:56:57;;;;;;;3.33;3.03;;;;;;;-149.78;100.00;50183.97;5031674;28;20409;-61
2021/09/11 10:59:23;;;;;;;4.15;3.40;;;;;;;-149.78;100.00;50176.13;5031418;28;20522;-61
2021/09/11 11:01:59;;;;;;;3.88;3.00;;;;;;;-149.78;100.00;50158.53;5028677;28;20034;-61